Metar z połowy godziny Komunikat METAR ze strony awiacja.imgw.pl Metar G30 EPCE METAR EPCE 200930Z 21006KT 110V250 9999 FEW087 27/17 Q1009 RMK 271 054 2/2=